createdAt,value
2023-05-22T00:00:35.583Z,16.07
2023-05-22T00:03:28.846Z,16.07
2023-05-22T00:06:21.095Z,16.02
2023-05-22T00:09:13.086Z,16.00
2023-05-22T00:12:05.285Z,15.97
2023-05-22T00:14:57.291Z,15.94
2023-05-22T00:17:49.903Z,15.90
2023-05-22T00:20:42.228Z,15.87
2023-05-22T00:23:34.676Z,15.83
2023-05-22T00:26:11.888Z,15.80
2023-05-22T00:28:48.748Z,15.76
2023-05-22T00:31:23.624Z,15.74
2023-05-22T00:34:06.169Z,15.73
2023-05-22T00:36:58.235Z,15.71
2023-05-22T00:39:50.458Z,15.68
2023-05-22T00:42:42.634Z,15.65
2023-05-22T00:45:34.722Z,15.63
2023-05-22T00:48:27.173Z,15.60
2023-05-22T00:51:21.194Z,15.58
2023-05-22T00:54:14.619Z,15.57
2023-05-22T00:57:07.707Z,15.53
2023-05-22T01:00:00.680Z,15.50
2023-05-22T01:02:52.844Z,15.47
2023-05-22T01:05:27.919Z,15.44
2023-05-22T01:08:20.616Z,15.42
2023-05-22T01:11:22.752Z,15.40
2023-05-22T01:14:25.983Z,15.37
2023-05-22T01:17:25.962Z,15.35
2023-05-22T01:20:26.483Z,15.33
2023-05-22T01:23:49.706Z,15.30
2023-05-22T01:27:08.579Z,15.28
2023-05-22T01:30:13.711Z,15.23
2023-05-22T01:33:08.278Z,15.19
2023-05-22T01:36:03.141Z,15.16
2023-05-22T01:38:56.642Z,15.10
2023-05-22T01:41:35.204Z,15.06
2023-05-22T01:44:27.211Z,15.01
2023-05-22T01:47:19.346Z,14.96
2023-05-22T01:50:12.643Z,14.92
2023-05-22T01:53:13.263Z,14.87
2023-05-22T01:56:14.572Z,14.81
2023-05-22T01:59:02.804Z,14.77
2023-05-22T02:01:56.347Z,14.70
2023-05-22T02:04:43.949Z,14.64
2023-05-22T02:07:39.368Z,14.59
2023-05-22T02:10:32.759Z,14.53
2023-05-22T02:13:10.135Z,14.48
2023-05-22T02:16:03.921Z,14.42
2023-05-22T02:19:05.968Z,14.37
2023-05-22T02:21:58.074Z,14.30
2023-05-22T02:24:50.823Z,14.23
2023-05-22T02:27:43.762Z,14.17
2023-05-22T02:30:35.943Z,14.11
2023-05-22T02:33:29.596Z,14.06
2023-05-22T02:36:21.873Z,14.01
2023-05-22T02:39:13.942Z,13.97
2023-05-22T02:42:06.624Z,13.90
2023-05-22T02:44:58.614Z,13.82
2023-05-22T02:47:50.964Z,13.78
2023-05-22T02:50:44.223Z,13.74
2023-05-22T02:53:56.288Z,13.70
2023-05-22T02:56:48.297Z,13.67
2023-05-22T02:59:25.986Z,13.65
2023-05-22T03:02:18.119Z,13.62
2023-05-22T03:05:11.151Z,13.59
2023-05-22T03:08:03.347Z,13.58
2023-05-22T03:10:55.433Z,13.57
2023-05-22T03:13:38.602Z,13.55
2023-05-22T03:16:30.665Z,13.54
2023-05-22T03:19:23.648Z,13.51
2023-05-22T03:22:07.319Z,13.49
2023-05-22T03:24:59.372Z,13.48
2023-05-22T03:27:51.441Z,13.46
2023-05-22T03:30:43.462Z,13.44
2023-05-22T03:33:35.532Z,13.45
2023-05-22T03:36:27.645Z,13.44
2023-05-22T03:39:19.682Z,13.44
2023-05-22T03:42:13.365Z,13.45
2023-05-22T03:45:05.881Z,13.46
2023-05-22T03:47:57.992Z,13.47
2023-05-22T03:50:50.080Z,13.49
2023-05-22T03:53:42.102Z,13.52
2023-05-22T03:56:34.162Z,13.56
2023-05-22T03:59:26.163Z,13.60
2023-05-22T04:02:18.334Z,13.64
2023-05-22T04:05:11.250Z,13.69
2023-05-22T04:08:03.342Z,13.75
2023-05-22T04:10:55.456Z,13.80
2023-05-22T04:13:30.915Z,13.84
2023-05-22T04:16:23.460Z,13.90
2023-05-22T04:19:16.553Z,13.98
2023-05-22T04:21:59.023Z,14.05
2023-05-22T04:24:51.054Z,14.14
2023-05-22T04:27:33.215Z,14.22
2023-05-22T04:30:25.640Z,14.31
2023-05-22T04:33:18.160Z,14.41
2023-05-22T04:36:12.581Z,14.53
2023-05-22T04:39:04.867Z,14.63
2023-05-22T04:41:58.233Z,14.72
2023-05-22T04:44:53.106Z,14.83
2023-05-22T04:47:25.095Z,14.93
2023-05-22T04:50:17.218Z,15.04
2023-05-22T04:53:09.307Z,15.16
2023-05-22T04:56:01.480Z,15.29
2023-05-22T04:58:53.911Z,15.41
2023-05-22T05:01:47.874Z,15.56
2023-05-22T05:04:39.950Z,15.71
2023-05-22T05:07:21.574Z,15.85
2023-05-22T05:10:13.835Z,15.97
2023-05-22T05:13:05.895Z,16.12
2023-05-22T05:15:58.724Z,16.27
2023-05-22T05:18:33.378Z,16.40
2023-05-22T05:21:21.739Z,16.52
2023-05-22T05:24:13.885Z,16.68
2023-05-22T05:27:06.330Z,16.84
2023-05-22T05:29:58.326Z,17.04
2023-05-22T05:32:50.373Z,17.28
2023-05-22T05:35:43.181Z,17.55
2023-05-22T05:38:23.847Z,17.75
2023-05-22T05:41:16.033Z,17.84
2023-05-22T05:43:48.020Z,18.09
2023-05-22T05:46:40.100Z,18.70
2023-05-22T05:49:34.167Z,19.42
2023-05-22T05:52:32.529Z,20.08
2023-05-22T05:55:04.791Z,20.67
2023-05-22T05:57:57.159Z,21.39
2023-05-22T06:00:45.939Z,22.19
2023-05-22T06:03:25.612Z,22.97
2023-05-22T06:06:18.263Z,23.74
2023-05-22T06:08:53.388Z,24.50
2023-05-22T06:11:45.442Z,25.54
2023-05-22T06:14:37.596Z,26.52
2023-05-22T06:17:10.048Z,27.05
2023-05-22T06:19:46.946Z,27.62
2023-05-22T06:22:19.014Z,28.19
2023-05-22T06:24:59.684Z,28.85
2023-05-22T06:27:51.684Z,29.40
2023-05-22T06:30:43.863Z,29.79
2023-05-22T06:33:36.552Z,30.25
2023-05-22T06:36:28.705Z,30.89
2023-05-22T06:39:22.193Z,31.38
2023-05-22T06:42:14.152Z,31.97
2023-05-22T06:44:56.490Z,32.68
2023-05-22T06:47:48.869Z,33.14
2023-05-22T06:50:34.308Z,33.55
2023-05-22T06:53:26.303Z,34.18
2023-05-22T06:56:18.739Z,34.73
2023-05-22T06:59:11.302Z,35.12
2023-05-22T07:02:03.458Z,35.74
2023-05-22T07:04:56.135Z,36.07
2023-05-22T07:07:48.299Z,36.03
2023-05-22T07:10:40.554Z,35.40
2023-05-22T07:13:32.974Z,34.34
2023-05-22T07:16:25.400Z,33.01
2023-05-22T07:19:17.696Z,31.66
2023-05-22T07:22:09.812Z,30.59
2023-05-22T07:25:01.820Z,29.64
2023-05-22T07:27:53.828Z,28.90
2023-05-22T07:30:45.862Z,28.36
2023-05-22T07:33:38.038Z,27.90
2023-05-22T07:36:30.127Z,27.51
2023-05-22T07:39:22.238Z,27.12
2023-05-22T07:42:14.909Z,26.73
2023-05-22T07:45:08.335Z,26.37
2023-05-22T07:48:01.986Z,25.93
2023-05-22T07:50:54.048Z,25.47
2023-05-22T07:53:47.209Z,25.16
2023-05-22T07:56:42.348Z,24.94
2023-05-22T07:59:35.738Z,24.71
2023-05-22T08:02:27.873Z,24.48
2023-05-22T08:05:04.438Z,24.29
2023-05-22T08:07:56.663Z,24.19
2023-05-22T08:11:03.214Z,24.11
2023-05-22T08:13:56.162Z,23.96
2023-05-22T08:16:48.269Z,23.91
2023-05-22T08:19:40.507Z,23.77
2023-05-22T08:22:34.256Z,23.66
2023-05-22T08:25:26.364Z,23.55
2023-05-22T08:28:18.670Z,23.58
2023-05-22T08:31:10.820Z,23.67
2023-05-22T08:34:04.681Z,23.72
2023-05-22T08:36:56.742Z,23.78
2023-05-22T08:39:31.379Z,23.78
2023-05-22T08:42:23.624Z,23.75
2023-05-22T08:45:26.008Z,23.73
2023-05-22T08:48:22.239Z,23.73
2023-05-22T08:51:18.792Z,23.70
2023-05-22T08:54:11.693Z,23.78
2023-05-22T08:57:03.953Z,23.84
2023-05-22T08:59:40.902Z,23.82
2023-05-22T09:02:34.172Z,23.92
2023-05-22T09:05:27.518Z,23.83
2023-05-22T09:08:20.868Z,23.88
2023-05-22T09:11:13.473Z,24.01
2023-05-22T09:14:12.317Z,23.94
2023-05-22T09:17:04.416Z,24.08
2023-05-22T09:20:00.057Z,24.12
2023-05-22T09:22:42.228Z,24.15
2023-05-22T09:25:34.287Z,24.10
2023-05-22T09:28:26.790Z,24.14
2023-05-22T09:31:18.967Z,24.21
2023-05-22T09:34:14.112Z,24.36
2023-05-22T09:37:06.647Z,24.39
2023-05-22T09:39:58.772Z,24.35
2023-05-22T09:42:47.454Z,24.31
2023-05-22T09:45:40.206Z,24.24
2023-05-22T09:48:37.375Z,24.25
2023-05-22T09:51:29.609Z,24.31
2023-05-22T09:54:27.262Z,24.46
2023-05-22T09:57:18.892Z,24.55
2023-05-22T10:00:18.303Z,24.49
2023-05-22T10:03:12.859Z,24.39
2023-05-22T10:06:06.732Z,24.47
2023-05-22T10:09:03.919Z,24.48
2023-05-22T10:11:59.494Z,24.44
2023-05-22T10:14:52.023Z,24.41
2023-05-22T10:17:45.109Z,24.46
2023-05-22T10:20:37.899Z,24.66
2023-05-22T10:23:31.721Z,24.80
2023-05-22T10:26:24.128Z,24.80
2023-05-22T10:29:23.342Z,24.50
2023-05-22T10:32:24.698Z,24.46
2023-05-22T10:35:21.768Z,24.57
2023-05-22T10:38:37.563Z,24.72
2023-05-22T10:41:31.059Z,24.71
2023-05-22T10:44:24.578Z,24.71
2023-05-22T10:47:16.918Z,24.73
2023-05-22T10:50:11.653Z,24.78
2023-05-22T10:53:27.980Z,24.90
2023-05-22T10:56:23.593Z,24.90
2023-05-22T10:59:17.178Z,25.01
2023-05-22T11:02:06.480Z,25.01
2023-05-22T11:05:18.463Z,25.07
2023-05-22T11:08:39.757Z,25.05
2023-05-22T11:11:15.587Z,25.15
2023-05-22T11:14:07.684Z,25.21
2023-05-22T11:17:04.218Z,25.32
2023-05-22T11:20:05.768Z,25.47
2023-05-22T11:23:01.644Z,25.53
2023-05-22T11:25:53.683Z,25.49
2023-05-22T11:28:48.993Z,25.49
2023-05-22T11:31:41.671Z,25.45
2023-05-22T11:34:34.051Z,25.46
2023-05-22T11:37:26.129Z,25.37
2023-05-22T11:40:19.427Z,25.31
2023-05-22T11:43:11.541Z,25.26
2023-05-22T11:46:08.844Z,25.39
2023-05-22T11:49:01.094Z,25.61
2023-05-22T11:51:54.348Z,25.67
2023-05-22T11:54:49.532Z,25.73
2023-05-22T11:57:41.572Z,25.72
2023-05-22T12:00:34.478Z,25.86
2023-05-22T12:03:26.668Z,25.93
2023-05-22T12:06:19.680Z,26.06
2023-05-22T12:09:12.472Z,26.20
2023-05-22T12:12:04.691Z,26.29
2023-05-22T12:14:58.482Z,26.21
2023-05-22T12:17:50.524Z,26.22
2023-05-22T12:20:45.633Z,26.19
2023-05-22T12:23:37.672Z,26.11
2023-05-22T12:26:29.687Z,26.04
2023-05-22T12:29:23.158Z,25.84
2023-05-22T12:32:15.458Z,25.87
2023-05-22T12:34:50.292Z,25.81
2023-05-22T12:37:40.771Z,25.68
2023-05-22T12:40:22.999Z,25.48
2023-05-22T12:43:15.124Z,25.36
2023-05-22T12:46:07.320Z,25.39
2023-05-22T12:48:59.393Z,25.47
2023-05-22T12:51:51.554Z,25.36
2023-05-22T12:54:43.586Z,25.23
2023-05-22T12:57:35.612Z,25.10
2023-05-22T13:00:27.795Z,25.12
2023-05-22T13:03:20.093Z,25.21
2023-05-22T13:06:12.284Z,25.27
2023-05-22T13:09:04.562Z,25.26
2023-05-22T13:11:56.669Z,25.36
2023-05-22T13:14:48.765Z,25.39
2023-05-22T13:17:40.892Z,25.61
2023-05-22T13:20:33.158Z,25.74
2023-05-22T13:23:25.199Z,25.69
2023-05-22T13:26:17.248Z,25.59
2023-05-22T13:29:09.356Z,25.56
2023-05-22T13:32:01.430Z,25.58
2023-05-22T13:34:39.067Z,25.54
2023-05-22T13:37:31.346Z,25.45
2023-05-22T13:40:23.475Z,25.37
2023-05-22T13:42:58.448Z,25.29
2023-05-22T13:45:50.756Z,25.21
2023-05-22T13:48:42.988Z,25.06
2023-05-22T13:51:34.979Z,24.89
2023-05-22T13:54:27.153Z,24.86
2023-05-22T13:57:19.207Z,24.82
2023-05-22T14:00:13.325Z,24.68
2023-05-22T14:03:05.549Z,24.56
2023-05-22T14:05:57.643Z,24.47
2023-05-22T14:08:49.739Z,24.48
2023-05-22T14:11:41.832Z,24.43
2023-05-22T14:14:33.938Z,24.46
2023-05-22T14:17:26.072Z,24.45
2023-05-22T14:20:18.290Z,24.42
2023-05-22T14:23:10.312Z,24.42
2023-05-22T14:25:47.754Z,24.49
2023-05-22T14:28:39.736Z,24.52
2023-05-22T14:31:31.848Z,24.47
2023-05-22T14:34:24.126Z,24.40
2023-05-22T14:37:16.089Z,24.37
2023-05-22T14:40:10.734Z,24.39
2023-05-22T14:43:02.747Z,24.42
2023-05-22T14:45:55.545Z,24.36
2023-05-22T14:48:47.676Z,24.34
2023-05-22T14:51:39.664Z,24.36
2023-05-22T14:54:31.611Z,24.26
2023-05-22T14:57:24.285Z,24.19
2023-05-22T15:00:17.636Z,24.14
2023-05-22T15:03:09.744Z,24.09
2023-05-22T15:06:01.867Z,24.06
2023-05-22T15:08:53.913Z,23.97
2023-05-22T15:11:50.660Z,23.87
2023-05-22T15:14:42.707Z,23.77
2023-05-22T15:17:34.868Z,23.65
2023-05-22T15:20:11.172Z,23.53
2023-05-22T15:23:04.289Z,23.44
2023-05-22T15:25:56.869Z,23.42
2023-05-22T15:28:48.966Z,23.37
2023-05-22T15:31:41.125Z,23.34
2023-05-22T15:34:33.281Z,23.32
2023-05-22T15:37:25.775Z,23.32
2023-05-22T15:40:25.629Z,23.31
2023-05-22T15:43:17.758Z,23.33
2023-05-22T15:46:12.233Z,23.32
2023-05-22T15:49:04.336Z,23.21
2023-05-22T15:51:56.521Z,23.17
2023-05-22T15:54:31.567Z,23.21
2023-05-22T15:57:23.559Z,23.25
2023-05-22T16:00:18.349Z,23.28
2023-05-22T16:03:11.399Z,23.29
2023-05-22T16:06:03.446Z,23.28
2023-05-22T16:08:55.450Z,23.24
2023-05-22T16:11:47.547Z,23.20
2023-05-22T16:14:40.156Z,23.19
2023-05-22T16:17:32.598Z,23.11
2023-05-22T16:20:24.632Z,23.06
2023-05-22T16:23:16.710Z,23.05
2023-05-22T16:26:08.928Z,23.01
2023-05-22T16:29:01.103Z,22.93
2023-05-22T16:31:35.370Z,22.92
2023-05-22T16:34:27.663Z,22.95
2023-05-22T16:37:19.700Z,22.98
2023-05-22T16:40:12.663Z,22.93
2023-05-22T16:43:05.498Z,22.80
2023-05-22T16:45:57.686Z,22.70
2023-05-22T16:48:39.573Z,22.57
2023-05-22T16:51:32.086Z,22.51
2023-05-22T16:54:24.424Z,22.46
2023-05-22T16:57:16.614Z,22.43
2023-05-22T17:00:11.606Z,22.45
2023-05-22T17:03:04.183Z,22.46
2023-05-22T17:05:56.337Z,22.46
2023-05-22T17:08:48.377Z,22.44
2023-05-22T17:11:40.524Z,22.38
2023-05-22T17:14:34.290Z,22.34
2023-05-22T17:17:26.340Z,22.28
2023-05-22T17:20:18.930Z,22.22
2023-05-22T17:23:10.971Z,22.20
2023-05-22T17:26:02.966Z,22.17
2023-05-22T17:28:55.007Z,22.10
2023-05-22T17:31:47.279Z,22.03
2023-05-22T17:34:39.300Z,21.92
2023-05-22T17:37:31.329Z,21.80
2023-05-22T17:40:32.486Z,21.69
2023-05-22T17:43:28.485Z,21.59
2023-05-22T17:46:20.665Z,21.52
2023-05-22T17:49:12.939Z,21.47
2023-05-22T17:52:05.065Z,21.43
2023-05-22T17:54:57.026Z,21.36
2023-05-22T17:57:29.054Z,21.32
2023-05-22T18:00:22.106Z,21.29
2023-05-22T18:03:14.515Z,21.27
2023-05-22T18:06:07.959Z,21.22
2023-05-22T18:09:02.129Z,21.18
2023-05-22T18:11:54.929Z,21.14
2023-05-22T18:14:43.799Z,21.09
2023-05-22T18:17:35.911Z,21.03
2023-05-22T18:20:28.136Z,20.98
2023-05-22T18:23:20.661Z,20.94
2023-05-22T18:26:12.758Z,20.88
2023-05-22T18:28:48.407Z,20.83
2023-05-22T18:31:40.433Z,20.78
2023-05-22T18:34:32.483Z,20.73
2023-05-22T18:37:24.575Z,20.66
2023-05-22T18:40:17.116Z,20.60
2023-05-22T18:43:09.205Z,20.51
2023-05-22T18:45:43.683Z,20.42
2023-05-22T18:48:35.670Z,20.36
2023-05-22T18:51:28.906Z,20.29
2023-05-22T18:54:23.437Z,20.18
2023-05-22T18:57:16.303Z,20.11
2023-05-22T19:00:12.295Z,20.04
2023-05-22T19:03:04.930Z,19.98
2023-05-22T19:05:43.009Z,19.94
2023-05-22T19:08:35.052Z,19.86
2023-05-22T19:11:27.361Z,19.79
2023-05-22T19:13:59.782Z,19.73
2023-05-22T19:16:35.667Z,19.68
2023-05-22T19:19:12.009Z,19.63
2023-05-22T19:22:04.222Z,19.57
2023-05-22T19:24:56.340Z,19.52
2023-05-22T19:27:48.656Z,19.46
2023-05-22T19:30:41.247Z,19.39
2023-05-22T19:33:14.741Z,19.34
2023-05-22T19:36:08.372Z,19.28
2023-05-22T19:38:42.932Z,19.23
2023-05-22T19:41:34.975Z,19.17
2023-05-22T19:44:27.030Z,19.11
2023-05-22T19:47:19.081Z,19.05
2023-05-22T19:50:10.867Z,18.97
2023-05-22T19:53:02.896Z,18.91
2023-05-22T19:55:55.637Z,18.87
2023-05-22T19:58:47.684Z,18.81
2023-05-22T20:01:39.789Z,18.75
2023-05-22T20:04:32.453Z,18.70
2023-05-22T20:07:24.725Z,18.65
2023-05-22T20:10:17.982Z,18.60
2023-05-22T20:13:02.279Z,18.54
2023-05-22T20:15:56.947Z,18.48
2023-05-22T20:18:49.477Z,18.40
2023-05-22T20:21:41.928Z,18.33
2023-05-22T20:24:35.560Z,18.27
2023-05-22T20:27:27.600Z,18.22
2023-05-22T20:30:19.747Z,18.13
2023-05-22T20:33:12.283Z,18.04
2023-05-22T20:36:04.546Z,17.96
2023-05-22T20:38:58.403Z,17.87
2023-05-22T20:41:40.473Z,17.82
2023-05-22T20:44:32.499Z,17.77
2023-05-22T20:47:24.562Z,17.72
2023-05-22T20:50:16.619Z,17.66
2023-05-22T20:53:09.347Z,17.60
2023-05-22T20:56:01.869Z,17.51
2023-05-22T20:58:47.126Z,17.42
2023-05-22T21:01:39.806Z,17.34
2023-05-22T21:04:31.940Z,17.27
2023-05-22T21:07:24.081Z,17.18
2023-05-22T21:10:16.169Z,17.09
2023-05-22T21:13:08.435Z,17.03
2023-05-22T21:16:00.492Z,16.96
2023-05-22T21:18:52.660Z,16.91
2023-05-22T21:21:44.739Z,16.85
2023-05-22T21:24:36.822Z,16.78
2023-05-22T21:27:25.118Z,16.68
2023-05-22T21:30:17.518Z,16.60
2023-05-22T21:33:09.506Z,16.51
2023-05-22T21:36:01.523Z,16.45
2023-05-22T21:38:56.412Z,16.40
2023-05-22T21:41:49.950Z,16.34
2023-05-22T21:44:42.172Z,16.26
2023-05-22T21:47:19.305Z,16.19
2023-05-22T21:50:00.338Z,16.14
2023-05-22T21:52:54.994Z,16.10
2023-05-22T21:55:46.977Z,16.05
2023-05-22T21:58:38.984Z,15.98
2023-05-22T22:01:31.115Z,15.93
2023-05-22T22:04:06.492Z,15.88
2023-05-22T22:06:58.644Z,15.81
2023-05-22T22:09:50.723Z,15.76
2023-05-22T22:12:42.903Z,15.70
2023-05-22T22:15:36.600Z,15.65
2023-05-22T22:18:28.571Z,15.59
2023-05-22T22:21:20.612Z,15.53
2023-05-22T22:24:13.119Z,15.51
2023-05-22T22:26:55.216Z,15.46
2023-05-22T22:29:47.309Z,15.42
2023-05-22T22:32:39.369Z,15.37
2023-05-22T22:35:31.665Z,15.32
2023-05-22T22:38:23.693Z,15.27
2023-05-22T22:41:15.746Z,15.22
2023-05-22T22:44:07.799Z,15.18
2023-05-22T22:46:42.713Z,15.14
2023-05-22T22:49:35.178Z,15.10
2023-05-22T22:52:27.180Z,15.08
2023-05-22T22:55:02.385Z,15.06
2023-05-22T22:57:54.870Z,15.01
2023-05-22T23:00:47.022Z,14.95
2023-05-22T23:03:39.000Z,14.92
2023-05-22T23:06:13.611Z,14.89
2023-05-22T23:09:05.864Z,14.85
2023-05-22T23:11:57.920Z,14.80
2023-05-22T23:14:50.919Z,14.76
2023-05-22T23:17:33.197Z,14.74
2023-05-22T23:20:25.231Z,14.68
2023-05-22T23:23:17.293Z,14.63
2023-05-22T23:26:00.380Z,14.59
2023-05-22T23:28:52.360Z,14.55
2023-05-22T23:31:44.320Z,14.51
2023-05-22T23:34:36.447Z,14.47
2023-05-22T23:37:28.442Z,14.44
2023-05-22T23:40:20.711Z,14.42
2023-05-22T23:43:12.705Z,14.38
2023-05-22T23:46:04.726Z,14.33
2023-05-22T23:48:56.745Z,14.30
2023-05-22T23:51:48.731Z,14.27
2023-05-22T23:54:40.836Z,14.22
2023-05-22T23:57:33.192Z,14.18
